DLH83T EDDF-LPPR
Flight info
| Callsign | DLH83T |
|---|---|
| Flight time | N/A |
| Altitude | 35000 |
| Route | SOBRA2L SOBRA Y180 DIK UN857 TOLVU DCT RAPOR/N0447F370 DCT GIMER/N0438F350 DCT ESTOC UT300 PON UN872 GODIX/N0423F310 UN872 DIDAK/N0448F370 UN872 TERPO/N0440F350 UN872 ERIGA UZ218 FUJTI DCT ATLEN DCT INSID T326 ASPOR |
| Aircraft | A321/M-SDE3FGHIRWY/LB1 |
Departure
| Time | N/A |
|---|---|
| Airport | Frankfurt Main Airport (EDDF) |
Arrival
| Time | 2026-05-05 15:17 |
|---|---|
| Airport | Francisco de Sá Carneiro Airport (LPPR) |
| Time | Latitude | Longitude | Altitude | Speed | Heading |
|---|---|---|---|---|---|
| 2026-05-05 13:56 | 48.03825 | -0.68190 | 36893 ft | 448 kts | 230° |
| 2026-05-05 13:56 | 48.01932 | -0.71854 | 36893 ft | 448 kts | 231° |
| 2026-05-05 13:56 | 47.98113 | -0.79223 | 36892 ft | 448 kts | 230° |
| 2026-05-05 13:57 | 47.94287 | -0.86578 | 36893 ft | 448 kts | 230° |
| 2026-05-05 13:57 | 47.90467 | -0.93915 | 36876 ft | 449 kts | 230° |
| 2026-05-05 13:58 | 47.86622 | -1.01289 | 36878 ft | 450 kts | 230° |
| 2026-05-05 13:58 | 47.82777 | -1.08628 | 36885 ft | 450 kts | 230° |
| 2026-05-05 13:59 | 47.77026 | -1.19547 | 36894 ft | 450 kts | 230° |
| 2026-05-05 14:00 | 47.71234 | -1.30542 | 36900 ft | 450 kts | 230° |
| 2026-05-05 14:00 | 47.67377 | -1.37829 | 36903 ft | 450 kts | 230° |
| 2026-05-05 14:01 | 47.63495 | -1.45130 | 36901 ft | 450 kts | 230° |
| 2026-05-05 14:01 | 47.59603 | -1.52404 | 36905 ft | 450 kts | 229° |
| 2026-05-05 14:02 | 47.55514 | -1.59418 | 36904 ft | 450 kts | 226° |
| 2026-05-05 14:02 | 47.51255 | -1.66239 | 36902 ft | 450 kts | 225° |
| 2026-05-05 14:03 | 47.47034 | -1.73005 | 36914 ft | 450 kts | 226° |
| 2026-05-05 14:03 | 47.42837 | -1.79868 | 36911 ft | 450 kts | 226° |
| 2026-05-05 14:04 | 47.38648 | -1.86760 | 36916 ft | 450 kts | 226° |
| 2026-05-05 14:04 | 47.34249 | -1.93276 | 36936 ft | 448 kts | 215° |
| 2026-05-05 14:05 | 47.29008 | -1.98141 | 36938 ft | 446 kts | 210° |
| 2026-05-05 14:05 | 47.23680 | -2.02893 | 36941 ft | 447 kts | 210° |
| 2026-05-05 14:06 | 47.18370 | -2.07651 | 36941 ft | 447 kts | 210° |
| 2026-05-05 14:06 | 47.13037 | -2.12396 | 36940 ft | 448 kts | 210° |
| 2026-05-05 14:07 | 47.07705 | -2.17133 | 36927 ft | 448 kts | 210° |
| 2026-05-05 14:07 | 47.02393 | -2.21841 | 36924 ft | 449 kts | 210° |
| 2026-05-05 14:08 | 46.97042 | -2.26576 | 36936 ft | 451 kts | 210° |
| 2026-05-05 14:08 | 46.91676 | -2.31318 | 36937 ft | 448 kts | 210° |
| 2026-05-05 14:09 | 46.86339 | -2.36011 | 36932 ft | 448 kts | 210° |
| 2026-05-05 14:09 | 46.80989 | -2.40699 | 36940 ft | 448 kts | 210° |
| 2026-05-05 14:10 | 46.75676 | -2.45354 | 36939 ft | 448 kts | 210° |
| 2026-05-05 14:10 | 46.70319 | -2.50040 | 36936 ft | 449 kts | 210° |
| 2026-05-05 14:11 | 46.64958 | -2.54713 | 36939 ft | 449 kts | 210° |
| 2026-05-05 14:11 | 46.59588 | -2.59391 | 36935 ft | 450 kts | 210° |
| 2026-05-05 14:12 | 46.54245 | -2.64047 | 36944 ft | 450 kts | 210° |
| 2026-05-05 14:12 | 46.48869 | -2.68708 | 36948 ft | 449 kts | 210° |
| 2026-05-05 14:13 | 46.43491 | -2.73350 | 36952 ft | 449 kts | 210° |
| 2026-05-05 14:13 | 46.38116 | -2.77978 | 36954 ft | 449 kts | 210° |
| 2026-05-05 14:14 | 46.32775 | -2.82576 | 36958 ft | 449 kts | 210° |
| 2026-05-05 14:14 | 46.27401 | -2.87219 | 36954 ft | 449 kts | 213° |
| 2026-05-05 14:15 | 46.22529 | -2.92871 | 36951 ft | 450 kts | 220° |
| 2026-05-05 14:15 | 46.17756 | -2.98717 | 36961 ft | 450 kts | 220° |
| 2026-05-05 14:16 | 46.12960 | -3.04555 | 36957 ft | 451 kts | 220° |
| 2026-05-05 14:16 | 46.08198 | -3.10331 | 36965 ft | 450 kts | 220° |
| 2026-05-05 14:17 | 46.03394 | -3.16144 | 36965 ft | 450 kts | 220° |
| 2026-05-05 14:17 | 45.98593 | -3.21959 | 36963 ft | 451 kts | 220° |
| 2026-05-05 14:18 | 45.93798 | -3.27758 | 36971 ft | 451 kts | 220° |
| 2026-05-05 14:18 | 45.88981 | -3.33568 | 36972 ft | 451 kts | 220° |
| 2026-05-05 14:19 | 45.84160 | -3.39357 | 36975 ft | 451 kts | 220° |
| 2026-05-05 14:19 | 45.79346 | -3.45129 | 36976 ft | 451 kts | 220° |
| 2026-05-05 14:20 | 45.74552 | -3.50860 | 36970 ft | 451 kts | 220° |
| 2026-05-05 14:20 | 45.69723 | -3.56621 | 36973 ft | 451 kts | 220° |
| 2026-05-05 14:21 | 45.64893 | -3.62374 | 36983 ft | 451 kts | 220° |
| 2026-05-05 14:21 | 45.60057 | -3.68113 | 36986 ft | 451 kts | 220° |
| 2026-05-05 14:22 | 45.55226 | -3.73836 | 36983 ft | 451 kts | 220° |
| 2026-05-05 14:22 | 45.50420 | -3.79527 | 36988 ft | 451 kts | 220° |
| 2026-05-05 14:23 | 45.45583 | -3.85232 | 36989 ft | 451 kts | 220° |
| 2026-05-05 14:23 | 45.40732 | -3.90929 | 36989 ft | 452 kts | 220° |
| 2026-05-05 14:24 | 45.35885 | -3.96614 | 36989 ft | 452 kts | 220° |
| 2026-05-05 14:24 | 45.31038 | -4.02299 | 36991 ft | 452 kts | 220° |
| 2026-05-05 14:25 | 45.26183 | -4.07965 | 36989 ft | 452 kts | 220° |
| 2026-05-05 14:25 | 45.21357 | -4.13592 | 36995 ft | 451 kts | 220° |
| 2026-05-05 14:26 | 45.16510 | -4.19236 | 36994 ft | 451 kts | 220° |
| 2026-05-05 14:26 | 45.11660 | -4.24859 | 36992 ft | 450 kts | 220° |
| 2026-05-05 14:27 | 45.06804 | -4.30482 | 37007 ft | 450 kts | 220° |
| 2026-05-05 14:27 | 45.01956 | -4.36099 | 37004 ft | 450 kts | 220° |
| 2026-05-05 14:28 | 44.97105 | -4.41682 | 37008 ft | 450 kts | 220° |
| 2026-05-05 14:28 | 44.92253 | -4.47255 | 37013 ft | 450 kts | 220° |
| 2026-05-05 14:29 | 44.87405 | -4.52823 | 37008 ft | 449 kts | 220° |
| 2026-05-05 14:29 | 44.82583 | -4.58346 | 37010 ft | 449 kts | 220° |
| 2026-05-05 14:30 | 44.77733 | -4.63884 | 37011 ft | 449 kts | 220° |
| 2026-05-05 14:30 | 44.72859 | -4.69431 | 37007 ft | 449 kts | 220° |
| 2026-05-05 14:31 | 44.68001 | -4.74961 | 37012 ft | 449 kts | 220° |
| 2026-05-05 14:31 | 44.63166 | -4.80458 | 37017 ft | 450 kts | 220° |
| 2026-05-05 14:32 | 44.58301 | -4.85972 | 37016 ft | 450 kts | 220° |
| 2026-05-05 14:32 | 44.53427 | -4.91469 | 37021 ft | 450 kts | 220° |
| 2026-05-05 14:33 | 44.48512 | -4.96916 | 37011 ft | 450 kts | 219° |
| 2026-05-05 14:33 | 44.43430 | -5.02067 | 37015 ft | 451 kts | 217° |
| 2026-05-05 14:34 | 44.38281 | -5.07095 | 37021 ft | 451 kts | 217° |
| 2026-05-05 14:34 | 44.33172 | -5.12148 | 37026 ft | 451 kts | 217° |
| 2026-05-05 14:35 | 44.28102 | -5.17225 | 37024 ft | 451 kts | 217° |
| 2026-05-05 14:35 | 44.23012 | -5.22323 | 37035 ft | 450 kts | 217° |
| 2026-05-05 14:36 | 44.17913 | -5.27410 | 37036 ft | 450 kts | 217° |
| 2026-05-05 14:36 | 44.12807 | -5.32480 | 37038 ft | 450 kts | 217° |
| 2026-05-05 14:37 | 44.07704 | -5.37533 | 37028 ft | 451 kts | 217° |
| 2026-05-05 14:37 | 44.02588 | -5.42598 | 37032 ft | 451 kts | 217° |
| 2026-05-05 14:38 | 43.97504 | -5.47612 | 37040 ft | 451 kts | 217° |
| 2026-05-05 14:38 | 43.92372 | -5.52660 | 37051 ft | 452 kts | 217° |
| 2026-05-05 14:39 | 43.87241 | -5.57701 | 37047 ft | 451 kts | 218° |
| 2026-05-05 14:39 | 43.82113 | -5.62731 | 37048 ft | 451 kts | 218° |
| 2026-05-05 14:40 | 43.76996 | -5.67735 | 37050 ft | 450 kts | 217° |
| 2026-05-05 14:40 | 43.71904 | -5.72698 | 37043 ft | 450 kts | 218° |
| 2026-05-05 14:41 | 43.66780 | -5.77695 | 37043 ft | 450 kts | 218° |
| 2026-05-05 14:41 | 43.62498 | -5.81866 | 37059 ft | 450 kts | 218° |
| 2026-05-05 14:42 | 43.57404 | -5.86814 | 37078 ft | 450 kts | 218° |
| 2026-05-05 14:42 | 43.52272 | -5.91781 | 37072 ft | 450 kts | 218° |
| 2026-05-05 14:43 | 43.47145 | -5.96730 | 37065 ft | 450 kts | 218° |
| 2026-05-05 14:43 | 43.42008 | -6.01678 | 37079 ft | 450 kts | 218° |
| 2026-05-05 14:44 | 43.36894 | -6.06604 | 37078 ft | 449 kts | 218° |
| 2026-05-05 14:44 | 43.31764 | -6.11529 | 37068 ft | 449 kts | 218° |
| 2026-05-05 14:45 | 43.26629 | -6.16439 | 37066 ft | 449 kts | 218° |
| 2026-05-05 14:45 | 43.21540 | -6.21305 | 37064 ft | 449 kts | 218° |
| 2026-05-05 14:46 | 43.16410 | -6.26204 | 37063 ft | 449 kts | 218° |
| 2026-05-05 14:46 | 43.11293 | -6.31084 | 37065 ft | 448 kts | 218° |
| 2026-05-05 14:47 | 43.06165 | -6.35958 | 37063 ft | 448 kts | 218° |
| 2026-05-05 14:47 | 43.01049 | -6.40811 | 37064 ft | 447 kts | 218° |
| 2026-05-05 14:48 | 42.95915 | -6.45673 | 37067 ft | 447 kts | 218° |
| 2026-05-05 14:48 | 42.90777 | -6.50528 | 37040 ft | 454 kts | 218° |
| 2026-05-05 14:49 | 42.85558 | -6.55443 | 37042 ft | 458 kts | 218° |
| 2026-05-05 14:49 | 42.80321 | -6.60362 | 37047 ft | 457 kts | 218° |
| 2026-05-05 14:50 | 42.75121 | -6.65235 | 37048 ft | 456 kts | 218° |
| 2026-05-05 14:50 | 42.69892 | -6.70133 | 37049 ft | 456 kts | 218° |
| 2026-05-05 14:51 | 42.64657 | -6.75030 | 37053 ft | 456 kts | 218° |
| 2026-05-05 14:51 | 42.59429 | -6.79917 | 37057 ft | 457 kts | 218° |
| 2026-05-05 14:52 | 42.54209 | -6.84766 | 37068 ft | 458 kts | 218° |
| 2026-05-05 14:52 | 42.48954 | -6.89639 | 37067 ft | 458 kts | 218° |
| 2026-05-05 14:53 | 42.43676 | -6.94539 | 37071 ft | 459 kts | 219° |
| 2026-05-05 14:53 | 42.38410 | -6.99403 | 37051 ft | 459 kts | 219° |
| 2026-05-05 14:54 | 42.33140 | -7.04263 | 37075 ft | 459 kts | 219° |
| 2026-05-05 14:54 | 42.28117 | -7.09474 | 37073 ft | 451 kts | 230° |
| 2026-05-05 14:55 | 42.24442 | -7.16195 | 37080 ft | 443 kts | 242° |
| 2026-05-05 14:55 | 42.21203 | -7.23261 | 37059 ft | 443 kts | 243° |
| 2026-05-05 14:56 | 42.17949 | -7.30304 | 37072 ft | 442 kts | 243° |
| 2026-05-05 14:56 | 42.14688 | -7.37341 | 37071 ft | 441 kts | 243° |
| 2026-05-05 14:57 | 42.11430 | -7.44371 | 37068 ft | 441 kts | 243° |
| 2026-05-05 14:57 | 42.09830 | -7.47810 | 36833 ft | 438 kts | 243° |
| 2026-05-05 14:57 | 42.08216 | -7.51278 | 36573 ft | 436 kts | 243° |
| 2026-05-05 14:58 | 42.06606 | -7.54736 | 36321 ft | 436 kts | 243° |
| 2026-05-05 14:58 | 42.04996 | -7.58185 | 36072 ft | 435 kts | 243° |
| 2026-05-05 14:58 | 42.03383 | -7.61634 | 35785 ft | 435 kts | 243° |
| 2026-05-05 14:58 | 42.01775 | -7.65072 | 35530 ft | 434 kts | 243° |
| 2026-05-05 14:59 | 42.00174 | -7.68498 | 34996 ft | 434 kts | 244° |
| 2026-05-05 14:59 | 41.98565 | -7.71943 | 34230 ft | 435 kts | 244° |
| 2026-05-05 14:59 | 41.96955 | -7.75388 | 33340 ft | 436 kts | 245° |
| 2026-05-05 14:59 | 41.95339 | -7.78836 | 32548 ft | 435 kts | 245° |
| 2026-05-05 15:00 | 41.93727 | -7.82271 | 31683 ft | 435 kts | 245° |
| 2026-05-05 15:00 | 41.92658 | -7.84543 | 31089 ft | 435 kts | 245° |
| 2026-05-05 15:00 | 41.90495 | -7.89129 | 29920 ft | 435 kts | 244° |
| 2026-05-05 15:00 | 41.88876 | -7.92556 | 28911 ft | 435 kts | 245° |
| 2026-05-05 15:01 | 41.87275 | -7.95944 | 27974 ft | 435 kts | 245° |
| 2026-05-05 15:01 | 41.85650 | -7.99384 | 26986 ft | 434 kts | 245° |
| 2026-05-05 15:01 | 41.84024 | -8.02818 | 25892 ft | 439 kts | 244° |
| 2026-05-05 15:01 | 41.82123 | -8.06093 | 24797 ft | 451 kts | 235° |
| 2026-05-05 15:02 | 41.79803 | -8.09014 | 23688 ft | 465 kts | 226° |
| 2026-05-05 15:02 | 41.77090 | -8.11451 | 22609 ft | 473 kts | 217° |
| 2026-05-05 15:02 | 41.74212 | -8.13567 | 21725 ft | 469 kts | 215° |
| 2026-05-05 15:02 | 41.71358 | -8.15655 | 20799 ft | 466 kts | 213° |
| 2026-05-05 15:03 | 41.68371 | -8.17353 | 19895 ft | 468 kts | 204° |
| 2026-05-05 15:03 | 41.65310 | -8.18762 | 19056 ft | 463 kts | 203° |
| 2026-05-05 15:03 | 41.62285 | -8.20148 | 18200 ft | 457 kts | 202° |
| 2026-05-05 15:03 | 41.59289 | -8.21516 | 17303 ft | 450 kts | 202° |
| 2026-05-05 15:04 | 41.56352 | -8.22853 | 16486 ft | 442 kts | 202° |
| 2026-05-05 15:04 | 41.53504 | -8.24149 | 15691 ft | 434 kts | 202° |
| 2026-05-05 15:04 | 41.50669 | -8.25442 | 14920 ft | 428 kts | 201° |
| 2026-05-05 15:04 | 41.47879 | -8.26717 | 14181 ft | 421 kts | 201° |
| 2026-05-05 15:05 | 41.42429 | -8.29208 | 12763 ft | 406 kts | 201° |
| 2026-05-05 15:05 | 41.39779 | -8.30414 | 12105 ft | 398 kts | 202° |
| 2026-05-05 15:05 | 41.37181 | -8.31593 | 11479 ft | 390 kts | 202° |
| 2026-05-05 15:06 | 41.34670 | -8.32726 | 11288 ft | 371 kts | 202° |
| 2026-05-05 15:06 | 41.32287 | -8.33799 | 11159 ft | 352 kts | 201° |
| 2026-05-05 15:06 | 41.30026 | -8.34819 | 11043 ft | 335 kts | 202° |
| 2026-05-05 15:06 | 41.27873 | -8.35793 | 10919 ft | 319 kts | 202° |
| 2026-05-05 15:07 | 41.25806 | -8.36726 | 10710 ft | 309 kts | 202° |
| 2026-05-05 15:07 | 41.23791 | -8.37637 | 10429 ft | 303 kts | 202° |
| 2026-05-05 15:07 | 41.21803 | -8.38539 | 10193 ft | 301 kts | 202° |
| 2026-05-05 15:07 | 41.19822 | -8.39441 | 9944 ft | 300 kts | 202° |
| 2026-05-05 15:08 | 41.17852 | -8.40335 | 9794 ft | 300 kts | 202° |
| 2026-05-05 15:08 | 41.15880 | -8.41226 | 9445 ft | 297 kts | 202° |
| 2026-05-05 15:08 | 41.13925 | -8.42103 | 9038 ft | 295 kts | 201° |
| 2026-05-05 15:08 | 41.11989 | -8.42971 | 8636 ft | 293 kts | 202° |
| 2026-05-05 15:09 | 41.10067 | -8.43836 | 8264 ft | 291 kts | 202° |
| 2026-05-05 15:09 | 41.08156 | -8.44697 | 7867 ft | 290 kts | 202° |
| 2026-05-05 15:09 | 41.06252 | -8.45555 | 7491 ft | 288 kts | 201° |
| 2026-05-05 15:09 | 41.04373 | -8.46399 | 7259 ft | 280 kts | 201° |
| 2026-05-05 15:10 | 41.02742 | -8.47212 | 7055 ft | 272 kts | 211° |
| 2026-05-05 15:10 | 41.01277 | -8.48611 | 6887 ft | 258 kts | 229° |
| 2026-05-05 15:10 | 41.00227 | -8.50483 | 6615 ft | 248 kts | 248° |
| 2026-05-05 15:10 | 40.99679 | -8.52599 | 6346 ft | 238 kts | 264° |
| 2026-05-05 15:11 | 40.99379 | -8.54728 | 6058 ft | 234 kts | 263° |
| 2026-05-05 15:11 | 40.99069 | -8.56827 | 5769 ft | 231 kts | 262° |
| 2026-05-05 15:11 | 40.98913 | -8.58905 | 5437 ft | 224 kts | 282° |
| 2026-05-05 15:11 | 40.99538 | -8.60735 | 5109 ft | 218 kts | 313° |
| 2026-05-05 15:12 | 41.00788 | -8.61797 | 4795 ft | 216 kts | 343° |
| 2026-05-05 15:12 | 41.02258 | -8.62206 | 4492 ft | 213 kts | 346° |
| 2026-05-05 15:12 | 41.03689 | -8.62583 | 4172 ft | 207 kts | 346° |
| 2026-05-05 15:12 | 41.05083 | -8.62952 | 3869 ft | 202 kts | 345° |
| 2026-05-05 15:13 | 41.06441 | -8.63313 | 3580 ft | 197 kts | 346° |
| 2026-05-05 15:13 | 41.07768 | -8.63661 | 3323 ft | 192 kts | 345° |
| 2026-05-05 15:13 | 41.09070 | -8.63998 | 3072 ft | 189 kts | 345° |
| 2026-05-05 15:13 | 41.10330 | -8.64315 | 2848 ft | 179 kts | 345° |
| 2026-05-05 15:14 | 41.11535 | -8.64616 | 2551 ft | 174 kts | 345° |
| 2026-05-05 15:14 | 41.12702 | -8.64918 | 2304 ft | 168 kts | 345° |
| 2026-05-05 15:14 | 41.13858 | -8.65223 | 2119 ft | 169 kts | 345° |
| 2026-05-05 15:14 | 41.14977 | -8.65506 | 1903 ft | 158 kts | 344° |
| 2026-05-05 15:15 | 41.16020 | -8.65771 | 1659 ft | 147 kts | 343° |
| 2026-05-05 15:15 | 41.16990 | -8.66034 | 1520 ft | 140 kts | 343° |
| 2026-05-05 15:15 | 41.17922 | -8.66339 | 1369 ft | 135 kts | 344° |
| 2026-05-05 15:15 | 41.18827 | -8.66573 | 1144 ft | 131 kts | 346° |
| 2026-05-05 15:16 | 41.19721 | -8.66787 | 961 ft | 129 kts | 345° |
| 2026-05-05 15:16 | 41.20607 | -8.67030 | 831 ft | 130 kts | 344° |
| 2026-05-05 15:16 | 41.21478 | -8.67258 | 640 ft | 125 kts | 345° |
| 2026-05-05 15:16 | 41.22347 | -8.67478 | 465 ft | 130 kts | 346° |
| 2026-05-05 15:17 | 41.23231 | -8.67712 | 301 ft | 127 kts | 345° |
| 2026-05-05 15:17 | 41.24053 | -8.67929 | 216 ft | 100 kts | 349° |
| 2026-05-05 15:17 | 41.24530 | -8.68053 | 207 ft | 54 kts | 349° |
| 2026-05-05 15:17 | 41.24871 | -8.68142 | 205 ft | 45 kts | 349° |
| 2026-05-05 15:18 | 41.25081 | -8.68176 | 182 ft | 23 kts | 6° |
| 2026-05-05 15:18 | 41.25193 | -8.68144 | 180 ft | 13 kts | 13° |
| 2026-05-05 15:18 | 41.25282 | -8.68097 | 176 ft | 11 kts | 41° |
| 2026-05-05 15:18 | 41.25275 | -8.68023 | 177 ft | 8 kts | 146° |
| 2026-05-05 15:19 | 41.25225 | -8.68006 | 180 ft | 8 kts | 169° |
| 2026-05-05 15:19 | 41.25169 | -8.67992 | 182 ft | 10 kts | 169° |
| 2026-05-05 15:19 | 41.25062 | -8.67965 | 185 ft | 18 kts | 169° |
| 2026-05-05 15:19 | 41.24932 | -8.67930 | 190 ft | 19 kts | 163° |
| 2026-05-05 15:20 | 41.24812 | -8.67857 | 206 ft | 19 kts | 154° |
| 2026-05-05 15:20 | 41.24664 | -8.67803 | 213 ft | 23 kts | 169° |
| 2026-05-05 15:20 | 41.24513 | -8.67763 | 214 ft | 22 kts | 169° |
| 2026-05-05 15:20 | 41.24370 | -8.67726 | 223 ft | 21 kts | 168° |
| 2026-05-05 15:21 | 41.24257 | -8.67629 | 232 ft | 18 kts | 125° |
| 2026-05-05 15:21 | 41.24162 | -8.67567 | 237 ft | 15 kts | 166° |
| 2026-05-05 15:21 | 41.24050 | -8.67535 | 237 ft | 17 kts | 169° |
| 2026-05-05 15:21 | 41.23927 | -8.67504 | 237 ft | 19 kts | 169° |
| 2026-05-05 15:22 | 41.23794 | -8.67469 | 237 ft | 18 kts | 168° |
| 2026-05-05 15:22 | 41.23707 | -8.67371 | 237 ft | 14 kts | 130° |
| 2026-05-05 15:22 | 41.23674 | -8.67309 | 237 ft | 8 kts | 75° |
| 2026-05-05 15:22 | 41.23683 | -8.67263 | 237 ft | 2 kts | 78° |
| 2026-05-05 15:23 | 41.23684 | -8.67256 | 237 ft | 0 kts | 78° |